createdAt,value
2019-06-26T00:02:15.356Z,25
2019-06-26T00:09:57.657Z,26
2019-06-26T00:15:19.281Z,26
2019-06-26T00:21:26.060Z,26
2019-06-26T00:26:57.737Z,26
2019-06-26T00:35:35.396Z,26
2019-06-26T00:42:22.370Z,25
2019-06-26T00:47:33.911Z,25
2019-06-26T00:52:35.490Z,25
2019-06-26T00:57:57.164Z,25
2019-06-26T01:04:44.053Z,25
2019-06-26T01:12:21.324Z,25
2019-06-26T01:17:22.906Z,25
2019-06-26T01:23:24.701Z,25
2019-06-26T01:29:06.421Z,25
2019-06-26T01:35:28.280Z,25
2019-06-26T01:40:59.943Z,25
2019-06-26T01:47:16.813Z,25
2019-06-26T01:52:23.337Z,24
2019-06-26T01:57:44.930Z,24
2019-06-26T02:03:11.564Z,24
2019-06-26T02:09:13.361Z,24
2019-06-26T02:14:50.097Z,24
2019-06-26T02:20:46.877Z,24
2019-06-26T02:26:38.567Z,24
2019-06-26T02:32:20.270Z,24
2019-06-26T02:37:56.975Z,24
2019-06-26T02:43:43.653Z,24
2019-06-26T02:51:10.873Z,24
2019-06-26T02:56:17.332Z,24
2019-06-26T03:02:04.053Z,24
2019-06-26T03:07:15.669Z,24
2019-06-26T03:12:52.358Z,24
2019-06-26T03:19:19.275Z,24
2019-06-26T03:24:30.772Z,24
2019-06-26T03:30:42.733Z,23
2019-06-26T03:38:24.987Z,23
2019-06-26T03:43:36.565Z,23
2019-06-26T03:50:03.480Z,23
2019-06-26T03:56:00.269Z,23
2019-06-26T04:03:27.471Z,23
2019-06-26T04:08:34.048Z,23
2019-06-26T04:15:56.189Z,23
2019-06-26T04:21:52.891Z,23
2019-06-26T04:27:14.530Z,23
2019-06-26T04:35:06.899Z,23
2019-06-26T04:45:09.927Z,23
2019-06-26T04:50:41.527Z,23
2019-06-26T04:56:23.234Z,23
2019-06-26T05:03:00.225Z,23
2019-06-26T05:08:36.926Z,23
2019-06-26T05:15:08.853Z,24
2019-06-26T05:20:10.363Z,24
2019-06-26T05:25:32.048Z,24
2019-06-26T05:30:33.471Z,24
2019-06-26T05:35:55.064Z,24
2019-06-26T05:41:21.652Z,24
2019-06-26T05:47:53.694Z,24
2019-06-26T05:53:15.261Z,24
2019-06-26T06:00:52.481Z,24
2019-06-26T06:07:39.711Z,25
2019-06-26T06:13:21.455Z,25
2019-06-26T06:18:48.009Z,25
2019-06-26T06:24:29.729Z,25
2019-06-26T06:30:31.387Z,25
2019-06-26T06:36:02.968Z,25
2019-06-26T06:41:54.833Z,25
2019-06-26T06:48:41.818Z,25
2019-06-26T06:53:53.363Z,25
2019-06-26T07:00:30.419Z,25
2019-06-26T07:09:48.092Z,25
2019-06-26T07:15:24.846Z,26
2019-06-26T07:22:11.851Z,26
2019-06-26T07:29:24.026Z,26
2019-06-26T07:34:25.547Z,26
2019-06-26T07:40:47.447Z,26
2019-06-26T07:46:14.090Z,26
2019-06-26T07:51:35.698Z,26
2019-06-26T07:56:52.283Z,26
2019-06-26T08:02:54.118Z,27
2019-06-26T08:08:14.268Z,26
2019-06-26T08:13:27.318Z,27
2019-06-26T08:18:58.964Z,27
2019-06-26T08:24:05.493Z,27
2019-06-26T08:29:27.093Z,27
2019-06-26T08:35:13.862Z,27
2019-06-26T08:40:35.420Z,27
2019-06-26T08:46:32.223Z,27
2019-06-26T08:52:44.097Z,27
2019-06-26T08:58:20.745Z,27
2019-06-26T09:04:32.759Z,27
2019-06-26T09:11:49.842Z,27
2019-06-26T09:16:51.338Z,28
2019-06-26T09:22:18.006Z,28
2019-06-26T09:27:19.695Z,28
2019-06-26T09:32:21.064Z,28
2019-06-26T09:38:58.171Z,28
2019-06-26T09:44:49.765Z,28
2019-06-26T09:50:46.789Z,28
2019-06-26T09:56:48.369Z,28
2019-06-26T10:02:15.110Z,28
2019-06-26T10:07:36.712Z,28
2019-06-26T10:13:28.430Z,28
2019-06-26T10:18:29.938Z,28
2019-06-26T10:24:11.644Z,28
2019-06-26T10:30:28.548Z,28
2019-06-26T10:36:10.252Z,29
2019-06-26T10:42:32.164Z,29
2019-06-26T10:47:39.921Z,29
2019-06-26T10:53:05.343Z,29
2019-06-26T10:58:06.872Z,29
2019-06-26T11:04:23.763Z,29
2019-06-26T11:09:25.351Z,29
2019-06-26T11:14:41.845Z,29
2019-06-26T11:21:18.853Z,29
2019-06-26T11:26:35.500Z,29
2019-06-26T11:32:47.446Z,29
2019-06-26T11:37:48.954Z,29
2019-06-26T11:44:40.964Z,29
2019-06-26T11:50:07.646Z,29
2019-06-26T11:55:49.339Z,29
2019-06-26T12:01:56.206Z,29
2019-06-26T12:07:52.973Z,29
2019-06-26T12:13:39.700Z,29
2019-06-26T12:19:18.984Z,29
2019-06-26T12:26:18.587Z,30
2019-06-26T12:32:25.366Z,29
2019-06-26T12:38:02.133Z,29
2019-06-26T12:44:39.117Z,29
2019-06-26T12:49:55.650Z,30
2019-06-26T12:55:27.318Z,30
2019-06-26T13:00:43.925Z,30
2019-06-26T13:06:40.693Z,30
2019-06-26T13:12:57.588Z,30
2019-06-26T13:19:39.643Z,30
2019-06-26T13:25:46.821Z,30
2019-06-26T13:30:58.019Z,30
2019-06-26T13:36:09.835Z,30
2019-06-26T13:41:31.203Z,30
2019-06-26T13:47:43.442Z,30
2019-06-26T13:53:59.961Z,30
2019-06-26T13:54:00.207Z,30
2019-06-26T13:59:01.575Z,30
2019-06-26T14:04:03.274Z,30
2019-06-26T14:09:19.702Z,30
2019-06-26T14:14:22.259Z,30
2019-06-26T14:14:37.802Z,30
2019-06-26T14:20:07.855Z,30
2019-06-26T14:25:44.535Z,30
2019-06-26T14:31:06.155Z,30
2019-06-26T14:36:17.857Z,30
2019-06-26T14:42:24.788Z,30
2019-06-26T14:48:31.617Z,30
2019-06-26T14:54:08.077Z,30
2019-06-26T14:59:34.717Z,30
2019-06-26T15:04:41.237Z,30
2019-06-26T15:10:12.901Z,30
2019-06-26T15:15:14.419Z,30
2019-06-26T15:21:14.841Z,30.765
2019-06-26T15:26:41.250Z,30.857
2019-06-26T15:32:12.898Z,30.985
2019-06-26T15:37:14.409Z,30.975
2019-06-26T15:42:26.023Z,31.149
2019-06-26T15:49:08.002Z,31.036
2019-06-26T15:54:09.516Z,31.031
2019-06-26T16:00:16.358Z,31.087
2019-06-26T16:05:22.866Z,31.011
2019-06-26T16:11:49.888Z,30.965
2019-06-26T16:17:16.492Z,30.801
2019-06-26T16:23:08.267Z,30.822
2019-06-26T16:28:09.783Z,30.883
2019-06-26T16:33:11.394Z,30.862
2019-06-26T16:39:23.155Z,30.929
2019-06-26T16:45:04.878Z,30.75
2019-06-26T16:50:06.377Z,30.709
2019-06-26T16:55:38.032Z,30.612
2019-06-26T17:02:15.016Z,30.556
2019-06-26T17:07:16.535Z,30.525
2019-06-26T17:12:18.062Z,30.315
2019-06-26T17:17:19.563Z,30.31
2019-06-26T17:23:31.436Z,30.233
2019-06-26T17:29:08.139Z,30.545
2019-06-26T17:34:27.134Z,30.474
2019-06-26T17:40:11.515Z,30.55
2019-06-26T17:45:58.197Z,30.448
2019-06-26T17:52:20.078Z,30.561
2019-06-26T17:58:37.005Z,30.412
2019-06-26T18:04:08.678Z,30.356
2019-06-26T18:09:55.498Z,30.208
2019-06-26T18:15:27.069Z,30.162
2019-06-26T18:20:33.613Z,30.121
2019-06-26T18:25:53.735Z,30.198
2019-06-26T18:31:01.761Z,29.973
2019-06-26T18:36:03.262Z,29.87
2019-06-26T18:41:04.845Z,29.671
2019-06-26T18:46:31.490Z,29.574
2019-06-26T18:51:53.034Z,29.466
2019-06-26T18:57:24.703Z,29.328
2019-06-26T19:04:01.667Z,29.103
2019-06-26T19:09:08.156Z,29.098
2019-06-26T19:14:09.678Z,28.919
2019-06-26T19:20:16.572Z,28.674
2019-06-26T19:25:43.200Z,28.582
2019-06-26T19:31:24.911Z,28.398
2019-06-26T19:39:22.299Z,28.147
2019-06-26T19:46:04.325Z,27.927
2019-06-26T19:51:05.825Z,27.641
2019-06-26T19:57:12.689Z,27.579
2019-06-26T20:03:04.435Z,27.446
2019-06-26T20:08:05.979Z,27.318
2019-06-26T20:13:32.547Z,27.099
2019-06-26T20:19:29.411Z,27.027
2019-06-26T20:24:43.246Z,26.904
2019-06-26T20:30:09.685Z,26.884
2019-06-26T20:38:14.968Z,26.695
2019-06-26T20:43:36.631Z,26.536
2019-06-26T20:49:53.754Z,26.434
2019-06-26T20:56:40.449Z,26.275
2019-06-26T21:02:07.115Z,26.142
2019-06-26T21:07:33.744Z,26.055
2019-06-26T21:13:20.480Z,25.974
2019-06-26T21:18:32.036Z,25.876
2019-06-26T21:24:18.808Z,25.708
2019-06-26T21:29:45.402Z,25.616
2019-06-26T21:35:07.025Z,25.457
2019-06-26T21:43:54.628Z,25.401
2019-06-26T21:49:06.172Z,25.258
2019-06-26T21:54:07.718Z,25.145
2019-06-26T22:00:54.733Z,25.053
2019-06-26T22:07:21.685Z,24.879
2019-06-26T22:12:28.232Z,24.813
2019-06-26T22:17:49.806Z,24.787
2019-06-26T22:23:56.604Z,24.716
2019-06-26T22:29:48.369Z,24.572
2019-06-26T22:34:54.969Z,24.521
2019-06-26T22:42:17.069Z,24.491
2019-06-26T22:48:54.066Z,24.399
2019-06-26T22:53:55.594Z,24.363
2019-06-26T22:59:12.205Z,24.307
2019-06-26T23:04:13.667Z,24.301
2019-06-26T23:09:50.366Z,24.286
2019-06-26T23:14:51.834Z,24.204
2019-06-26T23:20:48.596Z,24.041
2019-06-26T23:26:05.211Z,24.035
2019-06-26T23:33:07.319Z,23.897
2019-06-26T23:38:54.033Z,23.734
2019-06-26T23:44:05.681Z,23.744
2019-06-26T23:51:27.801Z,23.591
2019-06-26T23:57:14.543Z,23.478
